aviador You're here:

YMAV Decoded Metar

AVALON in AUSTRALIA
Report Time2018-01-19 18:30:00
UTC Time2018-01-19 19:05:15
Flight Rules mvfr MVFR
Wind180° at 05 kt
W.Decomp.*RWY 18: 4.9 kt HW 1 kt LCW
W.Rank180° ranks 10
Current wind is below 180° avg. (10.3)
VisibilityN/A
Phenomena:N/A
Clouds:Overcast 013 Hf
Expected CloudBase > 400 ft AGL from Temp-Dew spread
Ceiling1,300 ft
Temp19°C (ISA +4)
Dew Point18°C (94% RH)
QNH1013 hPa
Density Alt774 ft
Elevation26 ft
Report Wrong Elevation
Raw Report
YMAV 191830Z AUTO 18005KT //// // OVC013 19/18 Q1013 RF00.0/000.0
PRESENT WEATHER SENSOR US=

Extra information for YMAV:More info

Metar Taf Metar & Taf Last 4 Metars F.Rules Stats Wind Profile Meteogram Temp Stats Airport Information Weather charts Add Link Nearby VenuesMetar ALERT Operation Metar Decoded Social comments